Virgo Phoenix — 3FMO8 — position and weather

sailwx.info

Track history (hours):
 
Tides and Currents Weather Stations Pressure Air Temp Water Temp Dewpoint Dewpoint Depression Visibility Wind Speed Wind Dir Waves Ship Positions

Virgo Phoenix

Last reported at 2015-Apr-21 22:19 UTC. Time now 2015-Apr-25 06:41 UTC.
Position N 31°23' E 123°46'.

Length 96 m; draft 6.5 m.

Type: Ship (hazmat cat B). MMSI: 370795000.

Date/timePositionNaut miles runAvg speedWind from/ knotsBaromVisibWave heightAir tempDewpointWater temp
2015-Apr-21 22:19N 31°23' E 123°46'2712.6
2015-Apr-21 20:09N 31°09' E 123°19'2214.0
2015-Apr-21 18:33N 31°01' E 122°54'1413.6
2015-Apr-21 17:33N 30°59' E 122°39'1212.0
2015-Apr-21 16:33N 31°00' E 122°25'1111.3
2015-Apr-21 15:33N 31°03' E 122°12'10 9.5
2015-Apr-21 14:29N 31°05' E 122°01'9 9.6
2015-Apr-21 13:34N 31°10' E 121°52'1211.6
2015-Apr-21 12:33N 31°19' E 121°43'1111.2
2015-Apr-21 11:33N 31°25' E 121°32'1010.4
2015-Apr-21 10:33N 31°31' E 121°22'1312.8
2015-Apr-21 09:33N 31°40' E 121°12'1212.2
2015-Apr-21 08:33N 31°47' E 120°59'1110.6
2015-Apr-21 07:33N 31°55' E 120°52'1111.1
2015-Apr-21 06:33N 31°60' E 120°40'1212.0
2015-Apr-21 05:33N 32°04' E 120°27'1312.4
2015-Apr-21 04:33N 31°56' E 120°15'11 8.2
2015-Apr-21 03:11N 31°57' E 120°02'0 0.0
2015-Apr-21 02:30N 31°57' E 120°02'0 0.0
2015-Apr-21 01:05N 31°57' E 120°02'0 0.0
2015-Apr-21 00:24N 31°57' E 120°02'0 0.0
2015-Apr-20 23:29N 31°57' E 120°02'0 0.0
2015-Apr-20 22:11N 31°57' E 120°02'0 0.0
2015-Apr-20 21:29N 31°57' E 120°02'0 0.0
2015-Apr-20 20:30N 31°57' E 120°02'0 0.0
2015-Apr-20 19:30N 31°57' E 120°02'0 0.0
2015-Apr-20 18:17N 31°57' E 120°02'0 0.0
2015-Apr-20 17:29N 31°57' E 120°02'0 0.0
2015-Apr-20 16:29N 31°57' E 120°02'0 0.0
2015-Apr-20 15:11N 31°57' E 120°02'0 0.0
2015-Apr-20 14:11N 31°57' E 120°02'0 0.0
2015-Apr-20 09:11N 31°57' E 120°02'19 9.9
2015-Apr-20 07:14N 31°58' E 120°25'1 1.8
2015-Apr-20 06:30N 31°58' E 120°27'0 0.0
2015-Apr-20 03:18N 31°58' E 120°27'0 0.0
2015-Apr-20 02:33N 31°58' E 120°27'0 0.0
2015-Apr-20 01:33N 31°58' E 120°27'0 0.0
2015-Apr-20 00:30N 31°58' E 120°27'0 0.0
2015-Apr-19 23:27N 31°58' E 120°27'0 0.1
2015-Apr-19 22:30N 31°58' E 120°27'0 0.0
2015-Apr-19 21:18N 31°58' E 120°27'0 0.0
2015-Apr-19 20:30N 31°58' E 120°27'0 0.0
2015-Apr-19 19:06N 31°58' E 120°27'0 0.0
2015-Apr-19 11:10N 31°58' E 120°27'3 4.2
2015-Apr-19 10:33N 32°01' E 120°27'10 9.4
2015-Apr-19 09:32N 31°60' E 120°38'1111.0
2015-Apr-19 08:33N 31°59' E 120°51'2512.0
2015-Apr-19 06:30N 31°41' E 121°11'1314.0
2015-Apr-19 05:33N 31°32' E 121°22'1110.6
2015-Apr-19 04:34N 31°25' E 121°31'8 7.5
2015-Apr-19 03:33N 31°21' E 121°39'1111.0
2015-Apr-19 02:33N 31°13' E 121°48'1211.6
2015-Apr-19 01:33N 31°06' E 121°59'1512.8
2015-Apr-19 00:25N 31°03' E 122°15'9 9.9
2015-Apr-18 23:33N 31°01' E 122°25'11 2.1
2015-Apr-18 18:27N 31°01' E 122°38'0 0.0
2015-Apr-17 22:09N 31°01' E 122°38'  
2015-Apr-14 03:09N 35°01' E 139°33'813.1
2015-Apr-14 02:33N 35°06' E 139°41'1211.8
2015-Apr-14 01:33N 35°17' E 139°45'1110.7
2015-Apr-14 00:33N 35°28' E 139°47'4 3.3
2015-Apr-13 23:23N 35°31' E 139°46'0 0.0
2015-Apr-13 22:29N 35°31' E 139°46'0 0.0
2015-Apr-13 21:29N 35°31' E 139°46'0 0.0
2015-Apr-13 20:29N 35°31' E 139°46'0 0.0
2015-Apr-13 19:32N 35°31' E 139°46'0 0.0
2015-Apr-13 18:29N 35°31' E 139°46'0 0.0
2015-Apr-13 17:29N 35°31' E 139°46'0 0.0
2015-Apr-13 16:29N 35°31' E 139°46'0 0.0
2015-Apr-13 15:29N 35°31' E 139°46'0 0.0
2015-Apr-13 14:29N 35°31' E 139°46'0 0.0
2015-Apr-13 13:29N 35°31' E 139°46'0 0.0
2015-Apr-13 12:29N 35°31' E 139°46'0 0.0
2015-Apr-13 11:17N 35°31' E 139°46'0 0.0
2015-Apr-13 10:29N 35°31' E 139°46'0 0.0
2015-Apr-13 09:26N 35°31' E 139°46'0 0.0
2015-Apr-13 08:29N 35°31' E 139°46'0 0.0
2015-Apr-13 07:29N 35°31' E 139°46'0 0.0
2015-Apr-13 06:29N 35°31' E 139°46'0 0.0
2015-Apr-13 05:32N 35°31' E 139°46'0 0.0
2015-Apr-13 04:32N 35°31' E 139°46'0 0.0
2015-Apr-13 03:29N 35°31' E 139°46'0 0.0
2015-Apr-13 02:32N 35°31' E 139°46'2 1.6
2015-Apr-13 01:34N 35°30' E 139°45'3 2.8
2015-Apr-13 00:32N 35°27' E 139°45'0 0.0
2015-Apr-12 23:29N 35°27' E 139°45'0 0.1
2015-Apr-12 22:32N 35°27' E 139°45'0 0.0
2015-Apr-12 21:32N 35°27' E 139°45'0 0.0
2015-Apr-12 20:32N 35°27' E 139°45'0 0.0
2015-Apr-12 19:32N 35°27' E 139°45'0 0.0
2015-Apr-12 18:32N 35°27' E 139°45'0 0.0
2015-Apr-12 17:32N 35°27' E 139°45'0 0.0
2015-Apr-12 16:33N 35°27' E 139°45'1010.0
2015-Apr-12 15:33N 35°17' E 139°45'1212.0
2015-Apr-12 14:33N 35°06' E 139°42'1713.2
2015-Apr-12 13:15N 34°54' E 139°27'  
Track history (hours):
 
Tides and Currents Weather Stations Pressure Air Temp Water Temp Dewpoint Dewpoint Depression Visibility Wind Speed Wind Dir Waves Ship Positions

Virgo Phoenix

Last reported at 2015-Apr-21 22:19 UTC. Time now 2015-Apr-25 06:41 UTC.
Position N 31°23' E 123°46'.

Length 96 m; draft 6.5 m.

Type: Ship (hazmat cat B). MMSI: 370795000.

Date/timePositionNaut miles runAvg speedWind from/ knotsBaromVisibWave heightAir tempDewpointWater temp
2015-Apr-21 22:19N 31°23' E 123°46'2712.6
2015-Apr-21 20:09N 31°09' E 123°19'2214.0
2015-Apr-21 18:33N 31°01' E 122°54'1413.6
2015-Apr-21 17:33N 30°59' E 122°39'1212.0
2015-Apr-21 16:33N 31°00' E 122°25'1111.3
2015-Apr-21 15:33N 31°03' E 122°12'10 9.5
2015-Apr-21 14:29N 31°05' E 122°01'9 9.6
2015-Apr-21 13:34N 31°10' E 121°52'1211.6
2015-Apr-21 12:33N 31°19' E 121°43'1111.2
2015-Apr-21 11:33N 31°25' E 121°32'1010.4
2015-Apr-21 10:33N 31°31' E 121°22'1312.8
2015-Apr-21 09:33N 31°40' E 121°12'1212.2
2015-Apr-21 08:33N 31°47' E 120°59'1110.6
2015-Apr-21 07:33N 31°55' E 120°52'1111.1
2015-Apr-21 06:33N 31°60' E 120°40'1212.0
2015-Apr-21 05:33N 32°04' E 120°27'1312.4
2015-Apr-21 04:33N 31°56' E 120°15'11 8.2
2015-Apr-21 03:11N 31°57' E 120°02'0 0.0
2015-Apr-21 02:30N 31°57' E 120°02'0 0.0
2015-Apr-21 01:05N 31°57' E 120°02'0 0.0
2015-Apr-21 00:24N 31°57' E 120°02'0 0.0
2015-Apr-20 23:29N 31°57' E 120°02'0 0.0
2015-Apr-20 22:11N 31°57' E 120°02'0 0.0
2015-Apr-20 21:29N 31°57' E 120°02'0 0.0
2015-Apr-20 20:30N 31°57' E 120°02'0 0.0
2015-Apr-20 19:30N 31°57' E 120°02'0 0.0
2015-Apr-20 18:17N 31°57' E 120°02'0 0.0
2015-Apr-20 17:29N 31°57' E 120°02'0 0.0
2015-Apr-20 16:29N 31°57' E 120°02'0 0.0
2015-Apr-20 15:11N 31°57' E 120°02'0 0.0
2015-Apr-20 14:11N 31°57' E 120°02'0 0.0
2015-Apr-20 09:11N 31°57' E 120°02'19 9.9
2015-Apr-20 07:14N 31°58' E 120°25'1 1.8
2015-Apr-20 06:30N 31°58' E 120°27'0 0.0
2015-Apr-20 03:18N 31°58' E 120°27'0 0.0
2015-Apr-20 02:33N 31°58' E 120°27'0 0.0
2015-Apr-20 01:33N 31°58' E 120°27'0 0.0
2015-Apr-20 00:30N 31°58' E 120°27'0 0.0
2015-Apr-19 23:27N 31°58' E 120°27'0 0.1
2015-Apr-19 22:30N 31°58' E 120°27'0 0.0
2015-Apr-19 21:18N 31°58' E 120°27'0 0.0
2015-Apr-19 20:30N 31°58' E 120°27'0 0.0
2015-Apr-19 19:06N 31°58' E 120°27'0 0.0
2015-Apr-19 11:10N 31°58' E 120°27'3 4.2
2015-Apr-19 10:33N 32°01' E 120°27'10 9.4
2015-Apr-19 09:32N 31°60' E 120°38'1111.0
2015-Apr-19 08:33N 31°59' E 120°51'2512.0
2015-Apr-19 06:30N 31°41' E 121°11'1314.0
2015-Apr-19 05:33N 31°32' E 121°22'1110.6
2015-Apr-19 04:34N 31°25' E 121°31'8 7.5
2015-Apr-19 03:33N 31°21' E 121°39'1111.0
2015-Apr-19 02:33N 31°13' E 121°48'1211.6
2015-Apr-19 01:33N 31°06' E 121°59'1512.8
2015-Apr-19 00:25N 31°03' E 122°15'9 9.9
2015-Apr-18 23:33N 31°01' E 122°25'11 2.1
2015-Apr-18 18:27N 31°01' E 122°38'0 0.0
2015-Apr-17 22:09N 31°01' E 122°38'  
2015-Apr-14 03:09N 35°01' E 139°33'813.1
2015-Apr-14 02:33N 35°06' E 139°41'1211.8
2015-Apr-14 01:33N 35°17' E 139°45'1110.7
2015-Apr-14 00:33N 35°28' E 139°47'4 3.3
2015-Apr-13 23:23N 35°31' E 139°46'0 0.0
2015-Apr-13 22:29N 35°31' E 139°46'0 0.0
2015-Apr-13 21:29N 35°31' E 139°46'0 0.0
2015-Apr-13 20:29N 35°31' E 139°46'0 0.0
2015-Apr-13 19:32N 35°31' E 139°46'0 0.0
2015-Apr-13 18:29N 35°31' E 139°46'0 0.0
2015-Apr-13 17:29N 35°31' E 139°46'0 0.0
2015-Apr-13 16:29N 35°31' E 139°46'0 0.0
2015-Apr-13 15:29N 35°31' E 139°46'0 0.0
2015-Apr-13 14:29N 35°31' E 139°46'0 0.0
2015-Apr-13 13:29N 35°31' E 139°46'0 0.0
2015-Apr-13 12:29N 35°31' E 139°46'0 0.0
2015-Apr-13 11:17N 35°31' E 139°46'0 0.0
2015-Apr-13 10:29N 35°31' E 139°46'0 0.0
2015-Apr-13 09:26N 35°31' E 139°46'0 0.0
2015-Apr-13 08:29N 35°31' E 139°46'0 0.0
2015-Apr-13 07:29N 35°31' E 139°46'0 0.0
2015-Apr-13 06:29N 35°31' E 139°46'0 0.0
2015-Apr-13 05:32N 35°31' E 139°46'0 0.0
2015-Apr-13 04:32N 35°31' E 139°46'0 0.0
2015-Apr-13 03:29N 35°31' E 139°46'0 0.0
2015-Apr-13 02:32N 35°31' E 139°46'2 1.6
2015-Apr-13 01:34N 35°30' E 139°45'3 2.8
2015-Apr-13 00:32N 35°27' E 139°45'0 0.0
2015-Apr-12 23:29N 35°27' E 139°45'0 0.1
2015-Apr-12 22:32N 35°27' E 139°45'0 0.0
2015-Apr-12 21:32N 35°27' E 139°45'0 0.0
2015-Apr-12 20:32N 35°27' E 139°45'0 0.0
2015-Apr-12 19:32N 35°27' E 139°45'0 0.0
2015-Apr-12 18:32N 35°27' E 139°45'0 0.0
2015-Apr-12 17:32N 35°27' E 139°45'0 0.0
2015-Apr-12 16:33N 35°27' E 139°45'1010.0
2015-Apr-12 15:33N 35°17' E 139°45'1212.0
2015-Apr-12 14:33N 35°06' E 139°42'1713.2
2015-Apr-12 13:15N 34°54' E 139°27'  

Dump ship's entire track history